»·PEaware :: N722FB KCRQ-KBFL

N722FB :: KCRQ-KBFL

FLIGHT INFORMATION

Flight Status: Arrived
Operator: Privately registered:
United States
More flights under this callsign
Pilot: Anonymous 1328 (1328)
Aircraft: CIRRUS SR-22
(SR22)
More flights by this aircraft type
Origin: KCRQ McClellan-Palomar
United States
Destination: KBFL Meadows
United States
More flights between these airports :: More routes between these airports
Route: +
File this flight plan on PilotEdge
Remarks:
Altitude:
(Current/Filed)
4,500ft
Speed:
(Current/Filed)
0kts
Departed: 31-Aug-20 05:43 PM
Arrived: 31-Aug-20 06:45 PM
Distance/Time
Traveled:
164nm/1:02
Distance/Time
To Go:
Arrived

Flight Plot

Page will automatically refresh every two minutes.


Map Options




Map Legend


Flown Route
Filed Route
Departure Airport
Arrival Airport
Navaid (VOR, NDB)
Fix

Horizontal Profiles

Position Reports

Time Latitude Longitude Heading Altitude Ground
Speed
31-Aug-20 17:42 33.009156 -117.269353 328 4515ft 180kts
31-Aug-20 17:43 33.051821 -117.299785 328 4583ft 180kts
31-Aug-20 17:44 33.094953 -117.330588 328 4582ft 181kts
31-Aug-20 17:45 33.137975 -117.361348 328 4582ft 181kts
31-Aug-20 17:46 33.180877 -117.392056 328 4581ft 179kts
31-Aug-20 17:47 33.223599 -117.422671 328 4582ft 179kts
31-Aug-20 17:48 33.266314 -117.453315 328 4582ft 179kts
31-Aug-20 17:49 33.308853 -117.483870 328 4582ft 179kts
31-Aug-20 17:50 33.351417 -117.514477 328 4582ft 179kts
31-Aug-20 17:50 33.386256 -117.539555 328 4591ft 178kts
31-Aug-20 17:52 33.435615 -117.575128 328 4591ft 178kts
31-Aug-20 17:53 33.478017 -117.605722 328 4591ft 179kts
31-Aug-20 17:53 33.513219 -117.631150 328 4591ft 179kts
31-Aug-20 17:54 33.555018 -117.661373 328 4585ft 179kts
31-Aug-20 17:56 33.594828 -117.690178 328 6217ft 122kts
31-Aug-20 17:56 33.617040 -117.706258 328 7225ft 112kts
31-Aug-20 17:57 33.643740 -117.725614 328 8281ft 112kts
31-Aug-20 17:59 33.674961 -117.748267 328 9419ft 114kts
31-Aug-20 17:59 33.697330 -117.764511 328 10155ft 115kts
31-Aug-20 18:00 33.724591 -117.784322 328 10969ft 117kts
31-Aug-20 18:01 33.759085 -117.809424 328 10771ft 170kts
31-Aug-20 18:02 33.801085 -117.839994 328 10572ft 178kts
31-Aug-20 18:03 33.842722 -117.870344 328 10572ft 175kts
31-Aug-20 18:04 33.884108 -117.900546 328 10573ft 175kts
31-Aug-20 18:05 33.925449 -117.930750 328 10573ft 175kts
31-Aug-20 18:06 33.966877 -117.961053 328 10573ft 175kts
31-Aug-20 18:07 34.008153 -117.991278 328 10573ft 175kts
31-Aug-20 18:08 34.049651 -118.021702 328 10573ft 175kts
31-Aug-20 18:09 34.091033 -118.052076 328 10573ft 175kts
31-Aug-20 18:10 34.132253 -118.082366 328 10573ft 175kts
31-Aug-20 18:11 34.173179 -118.112473 328 10591ft 174kts
31-Aug-20 18:12 34.214445 -118.142868 328 10591ft 174kts
31-Aug-20 18:13 34.255750 -118.173326 328 10591ft 175kts
31-Aug-20 18:14 34.297164 -118.203899 328 10591ft 175kts
31-Aug-20 18:15 34.338577 -118.234509 328 10591ft 175kts
31-Aug-20 18:16 34.380007 -118.265165 328 10591ft 175kts
31-Aug-20 18:17 34.421406 -118.295836 328 10591ft 175kts
31-Aug-20 18:18 34.462677 -118.326447 328 10591ft 175kts
31-Aug-20 18:19 34.504151 -118.357245 328 10591ft 175kts
31-Aug-20 18:20 34.545405 -118.387916 328 10591ft 175kts
31-Aug-20 18:21 34.584135 -118.416747 328 10591ft 159kts
31-Aug-20 18:22 34.623113 -118.445786 328 10592ft 168kts
31-Aug-20 18:23 34.663153 -118.475655 328 10591ft 170kts
31-Aug-20 18:24 34.703434 -118.505740 328 10591ft 171kts
31-Aug-20 18:25 34.743829 -118.535943 328 10591ft 171kts
31-Aug-20 18:26 34.784233 -118.566189 328 10591ft 171kts
31-Aug-20 18:27 34.824552 -118.596405 328 10591ft 171kts
31-Aug-20 18:28 34.865009 -118.626761 328 10591ft 171kts
31-Aug-20 18:29 34.905430 -118.657125 328 10591ft 171kts
31-Aug-20 18:30 34.941864 -118.684524 328 10591ft 171kts
31-Aug-20 18:31 34.982272 -118.714946 328 10591ft 171kts
31-Aug-20 18:32 35.022587 -118.745335 328 10591ft 171kts
31-Aug-20 18:33 35.063001 -118.775832 328 10591ft 171kts
31-Aug-20 18:34 35.106259 -118.808519 328 9920ft 193kts
31-Aug-20 18:35 35.152329 -118.843375 328 9134ft 196kts
31-Aug-20 18:36 35.199447 -118.879069 328 8090ft 202kts
31-Aug-20 18:37 35.253346 -118.892800 359 7031ft 201kts
31-Aug-20 18:38 35.308414 -118.909280 1 5407ft 210kts
31-Aug-20 18:39 35.341500 -118.947192 323 2859ft 105kts
31-Aug-20 18:40 35.359327 -118.966273 315 2054ft 95kts
31-Aug-20 18:41 35.379114 -118.990050 315 1944ft 108kts
31-Aug-20 18:42 35.399595 -119.014824 315 1434ft 104kts
31-Aug-20 18:43 35.419218 -119.038505 315 893ft 93kts
31-Aug-20 18:44 35.433740 -119.056432 327 508ft 37kts

Navigation Log

Ident Type
Flight plan parsing failed, navigation log unavailable